KPDC

Prairie Du Chien Municipal Airport

Prairie Du Chien, Wisconsin, USA
METAR KPDC 121815Z AUTO 27007KT 4SM HZ OVC007 M01/M03 A2973 RMK AO2 T10121035
Observed Flight Rules
Dec-12 @ 18:15 UTC (33 minutes ago) Instrument Flight Rules
Wind Visibility Clouds Conditions
270° at 7 knots 4 miles
  • Overcast at 700' AGL
  • Haze
Temperatures Readings
Current -1°C / 30°F
Dewpoint -4°C / 25°F
Humidity 80%
Altimeter 29.73" Hg
Pressure 1007 hPa
Elevation 201
METAR KPDC 121815Z AUTO 27007KT 4SM HZ OVC007 M01/M03 A2973 RMK AO2 T10121035
Observed Flight Rules
Dec-12 @ 18:15 UTC
(33 minutes ago)
IFR
Wind Visibility
270° at 7 knots 4 miles
Clouds
  • Overcast at 700' AGL
Conditions
  • Haze
Temperature Dewpoint
-1°C / 30°F -4°C / 25°F
Humidity Altimeter Pressure
80% 29.73" Hg 1007 hPa